sensor_id;sensor_type;location;lat;lon;timestamp;pressure;altitude;pressure_sealevel;temperature;humidity
3968;BME280;9221;42.646;23.380;2024-01-06T00:01:46;94321.50;;;8.25;76.67
3968;BME280;9221;42.646;23.380;2024-01-06T00:04:12;94342.50;;;8.45;76.65
3968;BME280;9221;42.646;23.380;2024-01-06T00:06:37;94359.66;;;8.49;76.52
3968;BME280;9221;42.646;23.380;2024-01-06T00:09:03;94360.44;;;8.59;76.72
3968;BME280;9221;42.646;23.380;2024-01-06T00:11:28;94352.41;;;8.61;76.88
3968;BME280;9221;42.646;23.380;2024-01-06T00:13:54;94336.91;;;8.58;76.91
3968;BME280;9221;42.646;23.380;2024-01-06T00:16:20;94336.38;;;8.54;77.54
3968;BME280;9221;42.646;23.380;2024-01-06T00:18:46;94334.19;;;8.50;77.64
3968;BME280;9221;42.646;23.380;2024-01-06T00:21:12;94357.16;;;8.48;77.85
3968;BME280;9221;42.646;23.380;2024-01-06T00:23:38;94364.91;;;8.49;78.33
3968;BME280;9221;42.646;23.380;2024-01-06T00:26:04;94371.25;;;8.46;78.46
3968;BME280;9221;42.646;23.380;2024-01-06T00:28:30;94364.47;;;8.54;78.44
3968;BME280;9221;42.646;23.380;2024-01-06T00:30:55;94348.03;;;8.52;78.53
3968;BME280;9221;42.646;23.380;2024-01-06T00:33:21;94350.50;;;8.43;78.81
3968;BME280;9221;42.646;23.380;2024-01-06T00:35:47;94371.25;;;8.37;78.65
3968;BME280;9221;42.646;23.380;2024-01-06T00:38:12;94367.78;;;8.36;79.25
3968;BME280;9221;42.646;23.380;2024-01-06T00:40:37;94365.34;;;8.25;79.96
3968;BME280;9221;42.646;23.380;2024-01-06T00:43:03;94362.41;;;8.28;80.67
3968;BME280;9221;42.646;23.380;2024-01-06T00:45:29;94372.09;;;8.37;80.34
3968;BME280;9221;42.646;23.380;2024-01-06T00:47:56;94370.72;;;8.33;80.50
3968;BME280;9221;42.646;23.380;2024-01-06T00:50:21;94295.47;;;7.75;81.13
3968;BME280;9221;42.646;23.380;2024-01-06T00:52:47;94353.63;;;8.09;81.09
3968;BME280;9221;42.646;23.380;2024-01-06T00:55:12;94355.44;;;7.99;82.13
3968;BME280;9221;42.646;23.380;2024-01-06T00:57:38;94342.16;;;7.91;82.24
3968;BME280;9221;42.646;23.380;2024-01-06T01:00:05;94352.00;;;7.69;82.81
3968;BME280;9221;42.646;23.380;2024-01-06T01:02:31;94347.31;;;7.73;83.14
3968;BME280;9221;42.646;23.380;2024-01-06T01:04:57;94369.13;;;7.73;83.61
3968;BME280;9221;42.646;23.380;2024-01-06T01:07:23;94353.22;;;7.65;83.66
3968;BME280;9221;42.646;23.380;2024-01-06T01:09:49;94372.97;;;7.69;84.16
3968;BME280;9221;42.646;23.380;2024-01-06T01:12:14;94356.69;;;7.75;83.72
3968;BME280;9221;42.646;23.380;2024-01-06T01:14:40;94349.38;;;7.69;83.45
3968;BME280;9221;42.646;23.380;2024-01-06T01:17:05;94362.47;;;7.69;83.65
3968;BME280;9221;42.646;23.380;2024-01-06T01:19:30;94350.75;;;7.73;83.32
3968;BME280;9221;42.646;23.380;2024-01-06T01:21:56;94344.41;;;7.66;82.67
3968;BME280;9221;42.646;23.380;2024-01-06T01:24:22;94336.25;;;7.59;83.02
3968;BME280;9221;42.646;23.380;2024-01-06T01:26:49;94353.38;;;7.63;83.44
3968;BME280;9221;42.646;23.380;2024-01-06T01:29:15;94340.25;;;7.73;83.57
3968;BME280;9221;42.646;23.380;2024-01-06T01:31:40;94352.53;;;7.83;83.06
3968;BME280;9221;42.646;23.380;2024-01-06T01:34:06;94332.91;;;7.87;82.78
3968;BME280;9221;42.646;23.380;2024-01-06T01:36:31;94338.75;;;7.81;82.61
3968;BME280;9221;42.646;23.380;2024-01-06T01:38:57;94348.69;;;7.77;81.65
3968;BME280;9221;42.646;23.380;2024-01-06T01:41:22;94323.56;;;7.55;81.33
3968;BME280;9221;42.646;23.380;2024-01-06T01:43:47;94320.78;;;7.47;82.04
3968;BME280;9221;42.646;23.380;2024-01-06T01:46:13;94322.44;;;7.48;80.29
3968;BME280;9221;42.646;23.380;2024-01-06T01:48:39;94310.69;;;7.42;80.63
3968;BME280;9221;42.646;23.380;2024-01-06T01:51:05;94307.81;;;7.55;81.45
3968;BME280;9221;42.646;23.380;2024-01-06T01:53:32;94295.09;;;7.60;81.82
3968;BME280;9221;42.646;23.380;2024-01-06T01:55:58;94317.47;;;7.64;81.66
3968;BME280;9221;42.646;23.380;2024-01-06T01:58:24;94281.13;;;7.69;81.87
3968;BME280;9221;42.646;23.380;2024-01-06T02:00:50;94294.53;;;7.66;82.54
3968;BME280;9221;42.646;23.380;2024-01-06T02:03:16;94314.69;;;7.75;82.22
3968;BME280;9221;42.646;23.380;2024-01-06T02:05:41;94294.81;;;7.63;83.08
3968;BME280;9221;42.646;23.380;2024-01-06T02:08:07;94294.25;;;7.69;83.06
3968;BME280;9221;42.646;23.380;2024-01-06T02:10:32;94313.59;;;7.58;81.70
3968;BME280;9221;42.646;23.380;2024-01-06T02:13:07;94295.66;;;7.44;81.29
3968;BME280;9221;42.646;23.380;2024-01-06T02:15:33;94279.09;;;7.24;81.18
3968;BME280;9221;42.646;23.380;2024-01-06T02:17:59;94297.03;;;7.38;80.40
3968;BME280;9221;42.646;23.380;2024-01-06T02:20:25;94277.84;;;7.38;78.87
3968;BME280;9221;42.646;23.380;2024-01-06T02:22:52;94227.59;;;6.93;78.72
3968;BME280;9221;42.646;23.380;2024-01-06T02:25:36;94272.16;;;7.23;77.56
3968;BME280;9221;42.646;23.380;2024-01-06T02:28:02;94272.88;;;7.15;77.61
3968;BME280;9221;42.646;23.380;2024-01-06T02:30:28;94264.72;;;7.08;78.43
3968;BME280;9221;42.646;23.380;2024-01-06T02:32:53;94260.59;;;6.96;78.36
3968;BME280;9221;42.646;23.380;2024-01-06T02:35:20;94271.59;;;7.00;78.89
3968;BME280;9221;42.646;23.380;2024-01-06T02:37:46;94271.78;;;7.18;79.51
3968;BME280;9221;42.646;23.380;2024-01-06T02:40:12;94268.72;;;7.32;78.86
3968;BME280;9221;42.646;23.380;2024-01-06T02:42:38;94267.34;;;7.38;78.78
3968;BME280;9221;42.646;23.380;2024-01-06T02:45:04;94248.56;;;7.23;78.55
3968;BME280;9221;42.646;23.380;2024-01-06T02:47:30;94245.41;;;7.29;79.01
3968;BME280;9221;42.646;23.380;2024-01-06T02:49:55;94256.06;;;7.18;79.57
3968;BME280;9221;42.646;23.380;2024-01-06T02:52:21;94264.16;;;7.15;79.97
3968;BME280;9221;42.646;23.380;2024-01-06T02:54:47;94257.69;;;6.99;80.53
3968;BME280;9221;42.646;23.380;2024-01-06T02:57:13;94248.16;;;6.88;81.53
3968;BME280;9221;42.646;23.380;2024-01-06T02:59:39;94231.56;;;6.68;81.23
3968;BME280;9221;42.646;23.380;2024-01-06T03:02:04;94237.81;;;6.87;81.68
3968;BME280;9221;42.646;23.380;2024-01-06T03:04:30;94218.88;;;6.73;82.11
3968;BME280;9221;42.646;23.380;2024-01-06T03:06:55;94221.94;;;6.88;81.48
3968;BME280;9221;42.646;23.380;2024-01-06T03:09:21;94228.41;;;7.04;80.80
3968;BME280;9221;42.646;23.380;2024-01-06T03:11:46;94212.28;;;6.99;80.40
3968;BME280;9221;42.646;23.380;2024-01-06T03:14:12;94225.81;;;7.14;79.35
3968;BME280;9221;42.646;23.380;2024-01-06T03:16:37;94228.03;;;7.08;79.84
3968;BME280;9221;42.646;23.380;2024-01-06T03:19:03;94226.34;;;7.07;79.03
3968;BME280;9221;42.646;23.380;2024-01-06T03:21:28;94229.41;;;7.13;78.77
3968;BME280;9221;42.646;23.380;2024-01-06T03:23:54;94218.50;;;7.07;79.00
3968;BME280;9221;42.646;23.380;2024-01-06T03:26:21;94214.91;;;6.99;78.92
3968;BME280;9221;42.646;23.380;2024-01-06T03:28:49;94219.59;;;7.05;79.00
3968;BME280;9221;42.646;23.380;2024-01-06T03:31:14;94210.63;;;7.07;77.75
3968;BME280;9221;42.646;23.380;2024-01-06T03:33:40;94208.97;;;7.06;78.21
3968;BME280;9221;42.646;23.380;2024-01-06T03:36:06;94179.75;;;7.01;77.81
3968;BME280;9221;42.646;23.380;2024-01-06T03:38:32;94201.22;;;7.15;77.39
3968;BME280;9221;42.646;23.380;2024-01-06T03:40:58;94212.00;;;7.31;76.89
3968;BME280;9221;42.646;23.380;2024-01-06T03:43:23;94212.13;;;7.39;76.79
3968;BME280;9221;42.646;23.380;2024-01-06T03:45:49;94176.13;;;7.22;76.34
3968;BME280;9221;42.646;23.380;2024-01-06T03:48:14;94213.38;;;7.45;76.28
3968;BME280;9221;42.646;23.380;2024-01-06T03:50:39;94218.75;;;7.43;75.89
3968;BME280;9221;42.646;23.380;2024-01-06T03:53:05;94204.00;;;7.23;75.99
3968;BME280;9221;42.646;23.380;2024-01-06T03:55:30;94202.63;;;7.19;76.50
3968;BME280;9221;42.646;23.380;2024-01-06T03:57:56;94208.00;;;7.17;76.64
3968;BME280;9221;42.646;23.380;2024-01-06T04:00:21;94207.03;;;7.18;76.62
3968;BME280;9221;42.646;23.380;2024-01-06T04:02:47;94207.72;;;7.20;76.84
3968;BME280;9221;42.646;23.380;2024-01-06T04:05:13;94207.59;;;7.22;76.34
3968;BME280;9221;42.646;23.380;2024-01-06T04:07:38;94215.31;;;7.33;76.28
3968;BME280;9221;42.646;23.380;2024-01-06T04:10:04;94184.53;;;7.16;76.47
3968;BME280;9221;42.646;23.380;2024-01-06T04:12:29;94213.09;;;7.38;76.09
3968;BME280;9221;42.646;23.380;2024-01-06T04:14:55;94200.41;;;7.24;75.87
3968;BME280;9221;42.646;23.380;2024-01-06T04:17:20;94209.78;;;7.36;75.56
3968;BME280;9221;42.646;23.380;2024-01-06T04:19:46;94203.72;;;7.36;75.32
3968;BME280;9221;42.646;23.380;2024-01-06T04:22:11;94196.25;;;7.31;75.47
3968;BME280;9221;42.646;23.380;2024-01-06T04:24:37;94208.69;;;7.29;75.97
3968;BME280;9221;42.646;23.380;2024-01-06T04:27:04;94205.94;;;7.31;75.60
3968;BME280;9221;42.646;23.380;2024-01-06T04:29:30;94204.28;;;7.20;76.14
3968;BME280;9221;42.646;23.380;2024-01-06T04:31:55;94205.97;;;7.01;76.98
3968;BME280;9221;42.646;23.380;2024-01-06T04:34:21;94218.06;;;7.02;77.17
3968;BME280;9221;42.646;23.380;2024-01-06T04:36:46;94209.50;;;6.81;77.68
3968;BME280;9221;42.646;23.380;2024-01-06T04:39:12;94234.38;;;6.86;77.29
3968;BME280;9221;42.646;23.380;2024-01-06T04:41:39;94201.78;;;6.59;78.71
3968;BME280;9221;42.646;23.380;2024-01-06T04:44:05;94234.47;;;6.75;78.53
3968;BME280;9221;42.646;23.380;2024-01-06T04:46:31;94236.00;;;6.87;78.59
3968;BME280;9221;42.646;23.380;2024-01-06T04:48:57;94223.59;;;6.99;78.30
3968;BME280;9221;42.646;23.380;2024-01-06T04:51:22;94203.31;;;6.82;77.71
3968;BME280;9221;42.646;23.380;2024-01-06T04:53:48;94221.53;;;7.03;77.88
3968;BME280;9221;42.646;23.380;2024-01-06T04:56:13;94238.50;;;6.99;77.78
3968;BME280;9221;42.646;23.380;2024-01-06T04:58:39;94183.72;;;6.66;77.65
3968;BME280;9221;42.646;23.380;2024-01-06T05:01:04;94238.75;;;6.95;78.22
3968;BME280;9221;42.646;23.380;2024-01-06T05:03:30;94236.56;;;7.01;77.79
3968;BME280;9221;42.646;23.380;2024-01-06T05:05:56;94229.94;;;7.06;77.71
3968;BME280;9221;42.646;23.380;2024-01-06T05:08:21;94222.78;;;6.99;77.60
3968;BME280;9221;42.646;23.380;2024-01-06T05:10:48;94207.03;;;6.69;77.77
3968;BME280;9221;42.646;23.380;2024-01-06T05:13:14;94216.69;;;6.69;78.18
3968;BME280;9221;42.646;23.380;2024-01-06T05:15:40;94210.03;;;6.55;78.64
3968;BME280;9221;42.646;23.380;2024-01-06T05:18:05;94221.88;;;6.49;79.01
3968;BME280;9221;42.646;23.380;2024-01-06T05:20:31;94205.31;;;6.39;79.63
3968;BME280;9221;42.646;23.380;2024-01-06T05:22:56;94208.88;;;6.28;80.07
3968;BME280;9221;42.646;23.380;2024-01-06T05:25:22;94218.53;;;6.28;79.98
3968;BME280;9221;42.646;23.380;2024-01-06T05:27:47;94197.28;;;6.21;80.67
3968;BME280;9221;42.646;23.380;2024-01-06T05:30:13;94211.84;;;6.14;81.45
3968;BME280;9221;42.646;23.380;2024-01-06T05:32:38;94193.69;;;6.22;81.28
3968;BME280;9221;42.646;23.380;2024-01-06T05:35:04;94210.53;;;6.29;80.58
3968;BME280;9221;42.646;23.380;2024-01-06T05:37:30;94186.81;;;6.21;80.06
3968;BME280;9221;42.646;23.380;2024-01-06T05:39:56;94175.13;;;5.94;80.73
3968;BME280;9221;42.646;23.380;2024-01-06T05:42:23;94194.34;;;6.04;81.58
3968;BME280;9221;42.646;23.380;2024-01-06T05:44:49;94193.69;;;5.91;81.72
3968;BME280;9221;42.646;23.380;2024-01-06T05:47:15;94184.47;;;5.87;82.05
3968;BME280;9221;42.646;23.380;2024-01-06T05:49:42;94187.50;;;5.92;81.72
3968;BME280;9221;42.646;23.380;2024-01-06T05:52:09;94189.16;;;5.93;81.80
3968;BME280;9221;42.646;23.380;2024-01-06T05:54:34;94193.84;;;5.89;81.85
3968;BME280;9221;42.646;23.380;2024-01-06T05:57:00;94192.03;;;5.90;82.12
3968;BME280;9221;42.646;23.380;2024-01-06T05:59:25;94181.56;;;5.90;82.03
3968;BME280;9221;42.646;23.380;2024-01-06T06:01:51;94166.81;;;5.89;81.95
3968;BME280;9221;42.646;23.380;2024-01-06T06:04:17;94175.13;;;5.94;81.73
3968;BME280;9221;42.646;23.380;2024-01-06T06:06:44;94171.38;;;5.87;81.67
3968;BME280;9221;42.646;23.380;2024-01-06T06:09:10;94183.44;;;5.99;81.75
3968;BME280;9221;42.646;23.380;2024-01-06T06:11:36;94176.78;;;5.95;81.51
3968;BME280;9221;42.646;23.380;2024-01-06T06:14:01;94189.00;;;6.16;80.97
3968;BME280;9221;42.646;23.380;2024-01-06T06:16:28;94165.88;;;6.21;80.57
3968;BME280;9221;42.646;23.380;2024-01-06T06:18:55;94177.16;;;6.31;79.94
3968;BME280;9221;42.646;23.380;2024-01-06T06:21:20;94173.06;;;6.38;80.21
3968;BME280;9221;42.646;23.380;2024-01-06T06:23:46;94170.31;;;6.40;79.56
3968;BME280;9221;42.646;23.380;2024-01-06T06:26:11;94180.53;;;6.53;80.08
3968;BME280;9221;42.646;23.380;2024-01-06T06:28:37;94172.81;;;6.61;78.83
3968;BME280;9221;42.646;23.380;2024-01-06T06:31:03;94181.63;;;6.60;79.18
3968;BME280;9221;42.646;23.380;2024-01-06T06:33:28;94188.53;;;6.61;79.60
3968;BME280;9221;42.646;23.380;2024-01-06T06:35:55;94174.19;;;6.65;79.40
3968;BME280;9221;42.646;23.380;2024-01-06T06:38:20;94190.34;;;6.70;78.74
3968;BME280;9221;42.646;23.380;2024-01-06T06:40:46;94208.97;;;6.67;79.02
3968;BME280;9221;42.646;23.380;2024-01-06T06:43:13;94188.16;;;6.75;78.95
3968;BME280;9221;42.646;23.380;2024-01-06T06:45:39;94191.88;;;6.73;78.46
3968;BME280;9221;42.646;23.380;2024-01-06T06:48:04;94195.59;;;6.70;78.49
3968;BME280;9221;42.646;23.380;2024-01-06T06:50:30;94200.97;;;6.59;78.63
3968;BME280;9221;42.646;23.380;2024-01-06T06:52:56;94170.31;;;6.50;79.06
3968;BME280;9221;42.646;23.380;2024-01-06T06:55:21;94188.00;;;6.67;78.95
3968;BME280;9221;42.646;23.380;2024-01-06T06:57:46;94195.59;;;6.70;79.11
3968;BME280;9221;42.646;23.380;2024-01-06T07:00:12;94183.88;;;6.74;79.41
3968;BME280;9221;42.646;23.380;2024-01-06T07:02:38;94174.19;;;6.85;79.45
3968;BME280;9221;42.646;23.380;2024-01-06T07:05:04;94193.94;;;7.08;79.51
3968;BME280;9221;42.646;23.380;2024-01-06T07:07:32;94194.06;;;7.17;77.90
3968;BME280;9221;42.646;23.380;2024-01-06T07:10:00;94191.28;;;7.28;77.55
3968;BME280;9221;42.646;23.380;2024-01-06T07:12:25;94184.13;;;7.30;78.03
3968;BME280;9221;42.646;23.380;2024-01-06T07:14:52;94153.78;;;7.18;76.78
3968;BME280;9221;42.646;23.380;2024-01-06T07:17:18;94187.44;;;7.22;77.58
3968;BME280;9221;42.646;23.380;2024-01-06T07:19:43;94183.00;;;7.23;77.59
3968;BME280;9221;42.646;23.380;2024-01-06T07:22:09;94157.91;;;7.01;77.84
3968;BME280;9221;42.646;23.380;2024-01-06T07:24:34;94181.25;;;7.14;78.10
3968;BME280;9221;42.646;23.380;2024-01-06T07:27:02;94185.75;;;7.31;78.46
3968;BME280;9221;42.646;23.380;2024-01-06T07:29:28;94186.97;;;7.56;78.11
3968;BME280;9221;42.646;23.380;2024-01-06T07:31:54;94185.38;;;7.73;77.00
3968;BME280;9221;42.646;23.380;2024-01-06T07:34:19;94177.91;;;7.78;76.62
3968;BME280;9221;42.646;23.380;2024-01-06T07:36:45;94170.84;;;7.89;76.31
3968;BME280;9221;42.646;23.380;2024-01-06T07:39:10;94167.22;;;7.90;75.92
3968;BME280;9221;42.646;23.380;2024-01-06T07:41:36;94160.59;;;7.95;75.66
3968;BME280;9221;42.646;23.380;2024-01-06T07:44:01;94170.66;;;8.00;75.44
3968;BME280;9221;42.646;23.380;2024-01-06T07:46:30;94180.09;;;7.93;75.68
3968;BME280;9221;42.646;23.380;2024-01-06T07:48:57;94186.97;;;8.04;75.90
3968;BME280;9221;42.646;23.380;2024-01-06T07:51:22;94175.81;;;8.20;75.79
3968;BME280;9221;42.646;23.380;2024-01-06T07:53:48;94152.16;;;8.20;75.72
3968;BME280;9221;42.646;23.380;2024-01-06T07:56:13;94173.66;;;8.61;75.40
3968;BME280;9221;42.646;23.380;2024-01-06T07:58:39;94136.88;;;8.61;74.75
3968;BME280;9221;42.646;23.380;2024-01-06T08:01:04;94186.84;;;8.79;74.15
3968;BME280;9221;42.646;23.380;2024-01-06T08:03:30;94142.16;;;8.79;73.99
3968;BME280;9221;42.646;23.380;2024-01-06T08:05:55;94200.19;;;8.86;72.31
3968;BME280;9221;42.646;23.380;2024-01-06T08:08:21;94176.22;;;8.53;72.93
3968;BME280;9221;42.646;23.380;2024-01-06T08:10:47;94194.75;;;8.51;73.00
3968;BME280;9221;42.646;23.380;2024-01-06T08:13:13;94155.06;;;8.44;72.85
3968;BME280;9221;42.646;23.380;2024-01-06T08:15:39;94180.81;;;8.51;73.28
3968;BME280;9221;42.646;23.380;2024-01-06T08:18:04;94155.97;;;8.63;73.04
3968;BME280;9221;42.646;23.380;2024-01-06T08:20:30;94167.91;;;8.75;72.62
3968;BME280;9221;42.646;23.380;2024-01-06T08:22:55;94163.09;;;8.71;72.17
3968;BME280;9221;42.646;23.380;2024-01-06T08:25:21;94183.06;;;8.81;72.36
3968;BME280;9221;42.646;23.380;2024-01-06T08:27:46;94140.25;;;8.89;71.76
3968;BME280;9221;42.646;23.380;2024-01-06T08:30:12;94201.66;;;8.98;71.54
3968;BME280;9221;42.646;23.380;2024-01-06T08:32:38;94163.69;;;9.01;71.89
3968;BME280;9221;42.646;23.380;2024-01-06T08:35:04;94168.34;;;9.07;71.55
3968;BME280;9221;42.646;23.380;2024-01-06T08:37:30;94175.19;;;9.18;70.82
3968;BME280;9221;42.646;23.380;2024-01-06T08:39:55;94167.94;;;9.20;71.82
3968;BME280;9221;42.646;23.380;2024-01-06T08:42:21;94192.75;;;9.35;71.33
3968;BME280;9221;42.646;23.380;2024-01-06T08:44:47;94136.88;;;9.41;70.75
3968;BME280;9221;42.646;23.380;2024-01-06T08:47:13;94173.88;;;9.66;70.29
3968;BME280;9221;42.646;23.380;2024-01-06T08:49:38;94147.75;;;9.46;70.10
3968;BME280;9221;42.646;23.380;2024-01-06T08:52:04;94152.91;;;9.82;70.06
3968;BME280;9221;42.646;23.380;2024-01-06T08:54:31;94166.28;;;10.66;68.13
3968;BME280;9221;42.646;23.380;2024-01-06T08:56:57;94176.91;;;11.32;66.27
3968;BME280;9221;42.646;23.380;2024-01-06T08:59:23;94155.16;;;11.22;65.46
3968;BME280;9221;42.646;23.380;2024-01-06T09:01:48;94161.88;;;11.66;64.71
3968;BME280;9221;42.646;23.380;2024-01-06T09:04:14;94152.59;;;11.87;64.37
3968;BME280;9221;42.646;23.380;2024-01-06T09:06:40;94151.66;;;11.30;63.74
3968;BME280;9221;42.646;23.380;2024-01-06T09:09:07;94123.78;;;11.11;65.00
3968;BME280;9221;42.646;23.380;2024-01-06T09:11:33;94140.78;;;11.00;65.61
3968;BME280;9221;42.646;23.380;2024-01-06T09:13:59;94109.44;;;10.80;66.36
3968;BME280;9221;42.646;23.380;2024-01-06T09:16:24;94136.34;;;11.17;65.56
3968;BME280;9221;42.646;23.380;2024-01-06T09:18:50;94129.56;;;11.14;65.92
3968;BME280;9221;42.646;23.380;2024-01-06T09:21:15;94131.41;;;11.30;65.17
3968;BME280;9221;42.646;23.380;2024-01-06T09:23:42;94150.69;;;11.23;64.59
3968;BME280;9221;42.646;23.380;2024-01-06T09:26:08;94126.94;;;10.90;65.67
3968;BME280;9221;42.646;23.380;2024-01-06T09:28:33;94115.53;;;10.97;66.60
3968;BME280;9221;42.646;23.380;2024-01-06T09:30:59;94114.72;;;11.13;66.84
3968;BME280;9221;42.646;23.380;2024-01-06T09:33:24;94096.75;;;11.09;66.57
3968;BME280;9221;42.646;23.380;2024-01-06T09:35:50;94107.31;;;11.25;66.67
3968;BME280;9221;42.646;23.380;2024-01-06T09:38:16;94088.81;;;11.33;66.18
3968;BME280;9221;42.646;23.380;2024-01-06T09:40:43;94095.28;;;11.14;66.53
3968;BME280;9221;42.646;23.380;2024-01-06T09:43:10;94098.38;;;10.93;67.05
3968;BME280;9221;42.646;23.380;2024-01-06T09:45:37;94081.41;;;10.63;67.17
3968;BME280;9221;42.646;23.380;2024-01-06T09:48:13;94078.75;;;10.46;68.57
3968;BME280;9221;42.646;23.380;2024-01-06T09:50:43;94102.97;;;10.42;68.77
3968;BME280;9221;42.646;23.380;2024-01-06T09:53:12;94081.31;;;10.30;69.00
3968;BME280;9221;42.646;23.380;2024-01-06T09:55:39;94095.31;;;10.30;70.87
3968;BME280;9221;42.646;23.380;2024-01-06T09:58:05;94071.63;;;10.39;71.26
3968;BME280;9221;42.646;23.380;2024-01-06T10:00:32;94076.75;;;10.40;71.27
3968;BME280;9221;42.646;23.380;2024-01-06T10:02:57;94077.75;;;10.47;71.02
3968;BME280;9221;42.646;23.380;2024-01-06T10:05:23;94065.53;;;10.38;71.55
3968;BME280;9221;42.646;23.380;2024-01-06T10:07:49;94068.66;;;10.33;72.04
3968;BME280;9221;42.646;23.380;2024-01-06T10:10:15;94057.97;;;10.35;72.00
3968;BME280;9221;42.646;23.380;2024-01-06T10:12:42;94061.88;;;10.31;72.05
3968;BME280;9221;42.646;23.380;2024-01-06T10:15:09;94052.31;;;10.30;72.28
3968;BME280;9221;42.646;23.380;2024-01-06T10:17:41;94032.88;;;10.23;71.97
3968;BME280;9221;42.646;23.380;2024-01-06T10:20:11;94067.41;;;10.11;72.43
3968;BME280;9221;42.646;23.380;2024-01-06T10:22:38;94048.66;;;10.06;72.46
3968;BME280;9221;42.646;23.380;2024-01-06T10:25:06;94023.91;;;9.91;72.72
3968;BME280;9221;42.646;23.380;2024-01-06T10:27:39;94034.00;;;10.04;72.63
3968;BME280;9221;42.646;23.380;2024-01-06T10:30:06;94034.00;;;10.04;72.34
3968;BME280;9221;42.646;23.380;2024-01-06T10:32:32;94038.41;;;10.03;72.40
3968;BME280;9221;42.646;23.380;2024-01-06T10:34:58;94013.19;;;9.84;72.57
3968;BME280;9221;42.646;23.380;2024-01-06T10:37:25;94028.50;;;9.80;73.37
3968;BME280;9221;42.646;23.380;2024-01-06T10:42:32;94023.84;;;9.74;73.31
3968;BME280;9221;42.646;23.380;2024-01-06T10:44:59;93998.41;;;9.48;73.25
3968;BME280;9221;42.646;23.380;2024-01-06T10:47:25;93974.00;;;9.30;73.56
3968;BME280;9221;42.646;23.380;2024-01-06T10:49:52;94010.00;;;9.64;73.38
3968;BME280;9221;42.646;23.380;2024-01-06T10:52:20;94010.03;;;9.72;72.68
3968;BME280;9221;42.646;23.380;2024-01-06T10:54:48;93991.25;;;9.67;72.97
3968;BME280;9221;42.646;23.380;2024-01-06T10:57:18;93994.03;;;9.65;73.36
3968;BME280;9221;42.646;23.380;2024-01-06T10:59:45;93990.47;;;9.75;72.44
3968;BME280;9221;42.646;23.380;2024-01-06T11:02:14;93991.09;;;9.77;72.86
3968;BME280;9221;42.646;23.380;2024-01-06T11:04:43;93989.78;;;9.73;72.18
3968;BME280;9221;42.646;23.380;2024-01-06T11:07:09;93982.53;;;9.67;72.68
3968;BME280;9221;42.646;23.380;2024-01-06T11:09:37;93942.84;;;9.60;72.39
3968;BME280;9221;42.646;23.380;2024-01-06T11:12:05;93974.84;;;9.81;72.39
3968;BME280;9221;42.646;23.380;2024-01-06T11:14:36;93987.69;;;9.85;72.06
3968;BME280;9221;42.646;23.380;2024-01-06T11:17:02;93956.91;;;9.85;71.58
3968;BME280;9221;42.646;23.380;2024-01-06T11:24:48;93958.75;;;10.09;71.21
3968;BME280;9221;42.646;23.380;2024-01-06T11:27:20;93896.84;;;10.05;70.18
3968;BME280;9221;42.646;23.380;2024-01-06T11:29:48;93950.09;;;10.42;70.32
3968;BME280;9221;42.646;23.380;2024-01-06T11:32:20;93931.94;;;10.72;69.48
3968;BME280;9221;42.646;23.380;2024-01-06T11:34:50;93943.94;;;10.91;69.06
3968;BME280;9221;42.646;23.380;2024-01-06T11:37:19;93930.00;;;11.13;67.88
3968;BME280;9221;42.646;23.380;2024-01-06T11:39:45;93913.31;;;11.21;67.00
3968;BME280;9221;42.646;23.380;2024-01-06T11:42:11;93927.31;;;11.30;66.08
3968;BME280;9221;42.646;23.380;2024-01-06T11:44:38;93894.38;;;11.49;64.76
3968;BME280;9221;42.646;23.380;2024-01-06T11:47:04;93893.16;;;11.60;64.83
3968;BME280;9221;42.646;23.380;2024-01-06T11:49:30;93886.72;;;11.62;64.37
3968;BME280;9221;42.646;23.380;2024-01-06T11:51:57;93889.53;;;11.61;63.18
3968;BME280;9221;42.646;23.380;2024-01-06T11:54:22;93881.63;;;11.61;64.30
3968;BME280;9221;42.646;23.380;2024-01-06T11:56:48;93868.06;;;11.64;65.19
3968;BME280;9221;42.646;23.380;2024-01-06T11:59:14;93858.09;;;11.74;65.40
3968;BME280;9221;42.646;23.380;2024-01-06T12:01:40;93848.47;;;11.81;65.07
3968;BME280;9221;42.646;23.380;2024-01-06T12:04:06;93865.50;;;11.79;65.45
3968;BME280;9221;42.646;23.380;2024-01-06T12:06:35;93887.34;;;11.96;65.04
3968;BME280;9221;42.646;23.380;2024-01-06T12:09:07;93855.66;;;11.96;64.53
3968;BME280;9221;42.646;23.380;2024-01-06T12:11:33;93843.56;;;12.01;64.59
3968;BME280;9221;42.646;23.380;2024-01-06T12:13:58;93830.09;;;12.11;63.99
3968;BME280;9221;42.646;23.380;2024-01-06T12:16:24;93830.72;;;12.13;63.86
3968;BME280;9221;42.646;23.380;2024-01-06T12:18:56;93808.56;;;11.99;64.30
3968;BME280;9221;42.646;23.380;2024-01-06T12:21:23;93810.66;;;12.04;64.86
3968;BME280;9221;42.646;23.380;2024-01-06T12:23:49;93808.78;;;11.90;65.68
3968;BME280;9221;42.646;23.380;2024-01-06T12:26:16;93824.88;;;12.03;65.89
3968;BME280;9221;42.646;23.380;2024-01-06T12:28:44;93840.38;;;12.06;65.76
3968;BME280;9221;42.646;23.380;2024-01-06T12:31:10;93859.28;;;12.18;65.53
3968;BME280;9221;42.646;23.380;2024-01-06T12:33:38;93866.03;;;12.21;65.25
3968;BME280;9221;42.646;23.380;2024-01-06T12:36:04;93858.56;;;12.24;65.05
3968;BME280;9221;42.646;23.380;2024-01-06T12:38:31;93847.88;;;12.17;64.50
3968;BME280;9221;42.646;23.380;2024-01-06T12:40:57;93848.59;;;12.11;64.88
3968;BME280;9221;42.646;23.380;2024-01-06T12:43:22;93836.25;;;11.80;65.74
3968;BME280;9221;42.646;23.380;2024-01-06T12:45:48;93826.97;;;11.84;65.91
3968;BME280;9221;42.646;23.380;2024-01-06T12:48:14;93796.63;;;11.57;66.00
3968;BME280;9221;42.646;23.380;2024-01-06T12:50:39;93816.78;;;11.81;66.19
3968;BME280;9221;42.646;23.380;2024-01-06T12:53:05;93814.78;;;12.07;65.76
3968;BME280;9221;42.646;23.380;2024-01-06T12:55:30;93824.16;;;12.09;65.32
3968;BME280;9221;42.646;23.380;2024-01-06T12:57:56;93824.97;;;12.33;65.85
3968;BME280;9221;42.646;23.380;2024-01-06T13:00:22;93810.22;;;12.53;64.43
3968;BME280;9221;42.646;23.380;2024-01-06T13:02:47;93795.97;;;12.55;63.48
3968;BME280;9221;42.646;23.380;2024-01-06T13:05:13;93820.34;;;12.65;62.96
3968;BME280;9221;42.646;23.380;2024-01-06T13:07:39;93809.47;;;12.60;62.98
3968;BME280;9221;42.646;23.380;2024-01-06T13:10:05;93804.53;;;12.42;63.04
3968;BME280;9221;42.646;23.380;2024-01-06T13:12:31;93805.09;;;12.37;63.06
3968;BME280;9221;42.646;23.380;2024-01-06T13:14:56;93805.63;;;12.47;63.21
3968;BME280;9221;42.646;23.380;2024-01-06T13:17:22;93815.75;;;12.59;62.82
3968;BME280;9221;42.646;23.380;2024-01-06T13:19:47;93817.41;;;12.60;62.57
3968;BME280;9221;42.646;23.380;2024-01-06T13:22:13;93797.97;;;12.52;62.28